Overview Statistics Trail Chart Weather Telemetry Raw packets
 

This is the latest recevied telemetry packets stored in our database for station/object DL1YAU-2. If no packets are shown the sender has not sent any telemetry packets the latest 10 day(s).

Telemetry packets is used to share measurements like repeteater parameters, battery voltage, radiation readings (or any other measurements).

<< 1 2 3 4 >>
Time Press* Temp.in* Hum* QNH* Temp.out*
1788664249 993.6 hPa 14.2 C deg 60.4 % 1028.3 hPa 0 C deg
1788662434 993.5 hPa 14.4 C deg 60.3 % 1028.1 hPa 0 C deg
1788660618 993.6 hPa 14.6 C deg 59.9 % 1028.2 hPa 0 C deg
1788658803 993.5 hPa 14.9 C deg 59.6 % 1028.1 hPa 0 C deg
1788656988 993.2 hPa 15.2 C deg 59.2 % 1027.8 hPa 0 C deg
1788655173 993.2 hPa 15.5 C deg 58.8 % 1027.7 hPa 0 C deg
1788653358 993.2 hPa 15.9 C deg 58.5 % 1027.7 hPa 0 C deg
1788651543 993.2 hPa 16.1 C deg 58.1 % 1027.6 hPa 0 C deg
1788649728 992.9 hPa 16.4 C deg 57.7 % 1027.3 hPa 0 C deg
1788647913 992.6 hPa 16.7 C deg 57.2 % 1027 hPa 0 C deg
1788646098 992.4 hPa 16.9 C deg 56.8 % 1026.8 hPa 0 C deg
1788644282 992.4 hPa 17.2 C deg 56.3 % 1026.7 hPa 0 C deg
1788642467 992.1 hPa 17.6 C deg 55.8 % 1026.4 hPa 0 C deg
1788640652 991.7 hPa 18 C deg 55.4 % 1025.9 hPa 0 C deg
1788638837 991.6 hPa 18.6 C deg 54.9 % 1025.7 hPa 0 C deg
1788637022 991.4 hPa 19.2 C deg 54.7 % 1025.5 hPa 0 C deg
1788635207 991 hPa 19.8 C deg 54.4 % 1025 hPa 0 C deg
1788633392 990.7 hPa 20.3 C deg 53.9 % 1024.5 hPa 0 C deg
1788631577 990.3 hPa 20.8 C deg 53.3 % 1024.1 hPa 0 C deg
1788629761 990.1 hPa 21.5 C deg 52.7 % 1023.8 hPa 0 C deg
1788627946 989.8 hPa 22 C deg 52.1 % 1023.4 hPa 0 C deg
1788626131 989.4 hPa 22.4 C deg 51.6 % 1023 hPa 0 C deg
1788624316 988.9 hPa 22.6 C deg 51.4 % 1022.5 hPa 0 C deg
1788622501 988.7 hPa 22.9 C deg 51.3 % 1022.2 hPa 0 C deg
1788620711 988.3 hPa 23.5 C deg 51.1 % 1021.8 hPa 0 C deg
*Used Equation Coefficients:
Press: 0, 1, 0
Temp.in: 0, 1, 0
Hum: 0, 1, 0
QNH: 0, 1, 0
Temp.out: 0, 1, 0

  • The parameter names for the analog channels will be Value1, Value2, Value3 (up to Value5) if station has not sent a PARAM-packet that specifies the parameter names for each analog channel.
  • Each analog value is a decimal number between 000 and 255 (according to APRS specifications). The receiver use the telemetry equation coefficientsto to restore the original sensor values. If no EQNS-packet with equation coefficients is sent we will show the values as is (this corresponds to the equation coefficients a=0, b=1 and c=0).
    The sent equation coefficients is used in the equation: a * value2 + b * value + c.
  • The units for the analog values will not be shown if station has not sent a UNIT-packet specifying what unit's to use.
  • The parameter names for the digital bits will be Bit1, Bit2, Bit3 (up to Bit8) if station has not sent a PARAM-packet that specifies the parameter names for each digital bit.
  • All bit labels will be named "On" if station has not sent a UNIT-packet that specifies the label of each bit.
  • A bit is considered to be On when the bit is 1 if station has not sent a BITS-packet that specifies another "Bit sense" (a BITS-packet specify the state of the bits that match the BIT labels)